sensor_id;sensor_type;location;lat;lon;timestamp;temperature;humidity
15554;DHT22;7878;44.632;10.942;2023-12-28T00:00:46;11.60;99.90
15554;DHT22;7878;44.632;10.942;2023-12-28T00:03:13;11.60;99.90
15554;DHT22;7878;44.632;10.942;2023-12-28T00:05:38;11.50;99.90
15554;DHT22;7878;44.632;10.942;2023-12-28T00:08:04;11.50;99.90
15554;DHT22;7878;44.632;10.942;2023-12-28T00:10:30;11.40;99.90
15554;DHT22;7878;44.632;10.942;2023-12-28T00:12:56;11.30;99.90
15554;DHT22;7878;44.632;10.942;2023-12-28T00:15:22;11.40;99.90
15554;DHT22;7878;44.632;10.942;2023-12-28T00:17:47;11.30;99.90
15554;DHT22;7878;44.632;10.942;2023-12-28T00:20:13;11.30;99.90
15554;DHT22;7878;44.632;10.942;2023-12-28T00:22:39;11.20;99.90
15554;DHT22;7878;44.632;10.942;2023-12-28T00:25:05;11.20;99.90
15554;DHT22;7878;44.632;10.942;2023-12-28T00:27:31;11.20;99.90
15554;DHT22;7878;44.632;10.942;2023-12-28T00:29:56;11.20;99.90
15554;DHT22;7878;44.632;10.942;2023-12-28T00:32:22;11.10;99.90
15554;DHT22;7878;44.632;10.942;2023-12-28T00:34:48;11.10;99.90
15554;DHT22;7878;44.632;10.942;2023-12-28T00:37:13;11.10;99.90
15554;DHT22;7878;44.632;10.942;2023-12-28T00:39:39;11.00;99.90
15554;DHT22;7878;44.632;10.942;2023-12-28T00:42:06;11.00;99.90
15554;DHT22;7878;44.632;10.942;2023-12-28T00:44:32;11.00;99.90
15554;DHT22;7878;44.632;10.942;2023-12-28T00:46:57;10.90;99.90
15554;DHT22;7878;44.632;10.942;2023-12-28T00:49:23;10.80;99.90
15554;DHT22;7878;44.632;10.942;2023-12-28T00:51:48;10.90;99.90
15554;DHT22;7878;44.632;10.942;2023-12-28T00:54:14;10.80;99.90
15554;DHT22;7878;44.632;10.942;2023-12-28T00:56:40;10.80;99.90
15554;DHT22;7878;44.632;10.942;2023-12-28T00:59:05;10.80;99.90
15554;DHT22;7878;44.632;10.942;2023-12-28T01:01:31;10.80;99.90
15554;DHT22;7878;44.632;10.942;2023-12-28T01:03:57;10.70;99.90
15554;DHT22;7878;44.632;10.942;2023-12-28T01:06:23;10.70;99.90
15554;DHT22;7878;44.632;10.942;2023-12-28T01:08:53;10.70;99.90
15554;DHT22;7878;44.632;10.942;2023-12-28T01:11:19;10.60;99.90
15554;DHT22;7878;44.632;10.942;2023-12-28T01:13:44;10.60;99.90
15554;DHT22;7878;44.632;10.942;2023-12-28T01:16:13;10.60;99.90
15554;DHT22;7878;44.632;10.942;2023-12-28T01:18:39;10.60;99.90
15554;DHT22;7878;44.632;10.942;2023-12-28T01:21:05;10.50;99.90
15554;DHT22;7878;44.632;10.942;2023-12-28T01:23:31;10.40;99.90
15554;DHT22;7878;44.632;10.942;2023-12-28T01:25:57;10.50;99.90
15554;DHT22;7878;44.632;10.942;2023-12-28T01:28:23;10.50;99.90
15554;DHT22;7878;44.632;10.942;2023-12-28T01:30:48;10.40;99.90
15554;DHT22;7878;44.632;10.942;2023-12-28T01:33:14;10.40;99.90
15554;DHT22;7878;44.632;10.942;2023-12-28T01:35:41;10.40;99.90
15554;DHT22;7878;44.632;10.942;2023-12-28T01:38:07;10.40;99.90
15554;DHT22;7878;44.632;10.942;2023-12-28T01:40:33;10.40;99.90
15554;DHT22;7878;44.632;10.942;2023-12-28T01:42:59;10.40;99.90
15554;DHT22;7878;44.632;10.942;2023-12-28T01:45:24;10.40;99.90
15554;DHT22;7878;44.632;10.942;2023-12-28T01:47:50;10.40;99.90
15554;DHT22;7878;44.632;10.942;2023-12-28T01:50:18;10.30;99.90
15554;DHT22;7878;44.632;10.942;2023-12-28T01:52:45;10.30;99.90
15554;DHT22;7878;44.632;10.942;2023-12-28T01:55:12;10.30;99.90
15554;DHT22;7878;44.632;10.942;2023-12-28T01:57:38;10.20;99.90
15554;DHT22;7878;44.632;10.942;2023-12-28T02:00:04;10.30;99.90
15554;DHT22;7878;44.632;10.942;2023-12-28T02:02:33;10.20;99.90
15554;DHT22;7878;44.632;10.942;2023-12-28T02:05:00;10.20;99.90
15554;DHT22;7878;44.632;10.942;2023-12-28T02:07:27;10.20;99.90
15554;DHT22;7878;44.632;10.942;2023-12-28T02:09:53;10.20;99.90
15554;DHT22;7878;44.632;10.942;2023-12-28T02:12:19;10.10;99.90
15554;DHT22;7878;44.632;10.942;2023-12-28T02:14:45;10.10;99.90
15554;DHT22;7878;44.632;10.942;2023-12-28T02:17:33;10.00;99.90
15554;DHT22;7878;44.632;10.942;2023-12-28T02:20:00;10.00;99.90
15554;DHT22;7878;44.632;10.942;2023-12-28T02:22:31;10.00;99.90
15554;DHT22;7878;44.632;10.942;2023-12-28T02:27:52;9.90;99.90
15554;DHT22;7878;44.632;10.942;2023-12-28T02:30:21;9.90;99.90
15554;DHT22;7878;44.632;10.942;2023-12-28T02:33:15;9.90;99.90
15554;DHT22;7878;44.632;10.942;2023-12-28T02:35:52;9.90;99.90
15554;DHT22;7878;44.632;10.942;2023-12-28T02:38:18;9.90;99.90
15554;DHT22;7878;44.632;10.942;2023-12-28T02:40:44;9.80;99.90
15554;DHT22;7878;44.632;10.942;2023-12-28T02:43:11;9.80;99.90
15554;DHT22;7878;44.632;10.942;2023-12-28T02:45:38;9.80;99.90
15554;DHT22;7878;44.632;10.942;2023-12-28T02:48:05;9.80;99.90
15554;DHT22;7878;44.632;10.942;2023-12-28T02:50:31;9.80;99.90
15554;DHT22;7878;44.632;10.942;2023-12-28T02:52:58;9.70;99.90
15554;DHT22;7878;44.632;10.942;2023-12-28T02:55:24;9.70;99.90
15554;DHT22;7878;44.632;10.942;2023-12-28T02:57:56;9.60;99.90
15554;DHT22;7878;44.632;10.942;2023-12-28T03:00:24;9.60;99.90
15554;DHT22;7878;44.632;10.942;2023-12-28T03:02:50;9.60;99.90
15554;DHT22;7878;44.632;10.942;2023-12-28T03:05:16;9.60;99.90
15554;DHT22;7878;44.632;10.942;2023-12-28T03:07:42;9.50;99.90
15554;DHT22;7878;44.632;10.942;2023-12-28T03:10:09;9.40;99.90
15554;DHT22;7878;44.632;10.942;2023-12-28T03:12:36;9.40;99.90
15554;DHT22;7878;44.632;10.942;2023-12-28T03:15:03;9.50;99.90
15554;DHT22;7878;44.632;10.942;2023-12-28T03:17:29;9.40;99.90
15554;DHT22;7878;44.632;10.942;2023-12-28T03:19:56;9.40;99.90
15554;DHT22;7878;44.632;10.942;2023-12-28T03:22:22;9.40;99.90
15554;DHT22;7878;44.632;10.942;2023-12-28T03:24:48;9.40;99.90
15554;DHT22;7878;44.632;10.942;2023-12-28T03:27:14;9.30;99.90
15554;DHT22;7878;44.632;10.942;2023-12-28T03:29:41;9.30;99.90
15554;DHT22;7878;44.632;10.942;2023-12-28T03:32:08;9.30;99.90
15554;DHT22;7878;44.632;10.942;2023-12-28T03:34:33;9.30;99.90
15554;DHT22;7878;44.632;10.942;2023-12-28T03:37:00;9.30;99.90
15554;DHT22;7878;44.632;10.942;2023-12-28T03:39:26;9.30;99.90
15554;DHT22;7878;44.632;10.942;2023-12-28T03:41:52;9.30;99.90
15554;DHT22;7878;44.632;10.942;2023-12-28T03:44:19;9.30;99.90
15554;DHT22;7878;44.632;10.942;2023-12-28T03:46:47;9.30;99.90
15554;DHT22;7878;44.632;10.942;2023-12-28T03:49:18;9.20;99.90
15554;DHT22;7878;44.632;10.942;2023-12-28T03:51:44;9.10;99.90
15554;DHT22;7878;44.632;10.942;2023-12-28T03:54:10;9.10;99.90
15554;DHT22;7878;44.632;10.942;2023-12-28T03:56:36;9.20;99.90
15554;DHT22;7878;44.632;10.942;2023-12-28T03:59:05;9.10;99.90
15554;DHT22;7878;44.632;10.942;2023-12-28T04:01:31;9.10;99.90
15554;DHT22;7878;44.632;10.942;2023-12-28T04:03:57;9.10;99.90
15554;DHT22;7878;44.632;10.942;2023-12-28T04:06:23;9.10;99.90
15554;DHT22;7878;44.632;10.942;2023-12-28T04:08:48;9.00;99.90
15554;DHT22;7878;44.632;10.942;2023-12-28T04:11:14;9.00;99.90
15554;DHT22;7878;44.632;10.942;2023-12-28T04:13:40;8.90;99.90
15554;DHT22;7878;44.632;10.942;2023-12-28T04:16:06;8.90;99.90
15554;DHT22;7878;44.632;10.942;2023-12-28T04:18:32;8.90;99.90
15554;DHT22;7878;44.632;10.942;2023-12-28T04:20:58;8.90;99.90
15554;DHT22;7878;44.632;10.942;2023-12-28T04:23:24;9.00;99.90
15554;DHT22;7878;44.632;10.942;2023-12-28T04:25:49;8.90;99.90
15554;DHT22;7878;44.632;10.942;2023-12-28T04:28:15;9.00;99.90
15554;DHT22;7878;44.632;10.942;2023-12-28T04:30:41;9.00;99.90
15554;DHT22;7878;44.632;10.942;2023-12-28T04:33:06;8.90;99.90
15554;DHT22;7878;44.632;10.942;2023-12-28T04:35:32;8.90;99.90
15554;DHT22;7878;44.632;10.942;2023-12-28T04:37:58;8.90;99.90
15554;DHT22;7878;44.632;10.942;2023-12-28T04:40:23;8.90;99.90
15554;DHT22;7878;44.632;10.942;2023-12-28T04:42:49;8.90;99.90
15554;DHT22;7878;44.632;10.942;2023-12-28T04:45:15;8.80;99.90
15554;DHT22;7878;44.632;10.942;2023-12-28T04:47:41;8.80;99.90
15554;DHT22;7878;44.632;10.942;2023-12-28T04:50:07;8.80;99.90
15554;DHT22;7878;44.632;10.942;2023-12-28T04:52:33;8.80;99.90
15554;DHT22;7878;44.632;10.942;2023-12-28T04:54:58;8.80;99.90
15554;DHT22;7878;44.632;10.942;2023-12-28T04:57:24;8.70;99.90
15554;DHT22;7878;44.632;10.942;2023-12-28T04:59:51;8.70;99.90
15554;DHT22;7878;44.632;10.942;2023-12-28T05:02:17;8.70;99.90
15554;DHT22;7878;44.632;10.942;2023-12-28T05:04:43;8.70;99.90
15554;DHT22;7878;44.632;10.942;2023-12-28T05:07:09;8.70;99.90
15554;DHT22;7878;44.632;10.942;2023-12-28T05:09:35;8.70;99.90
15554;DHT22;7878;44.632;10.942;2023-12-28T05:12:01;8.70;99.90
15554;DHT22;7878;44.632;10.942;2023-12-28T05:14:27;8.60;99.90
15554;DHT22;7878;44.632;10.942;2023-12-28T05:16:52;8.60;99.90
15554;DHT22;7878;44.632;10.942;2023-12-28T05:19:18;8.60;99.90
15554;DHT22;7878;44.632;10.942;2023-12-28T05:21:44;8.60;99.90
15554;DHT22;7878;44.632;10.942;2023-12-28T05:24:09;8.60;99.90
15554;DHT22;7878;44.632;10.942;2023-12-28T05:26:35;8.60;99.90
15554;DHT22;7878;44.632;10.942;2023-12-28T05:29:01;8.60;99.90
15554;DHT22;7878;44.632;10.942;2023-12-28T05:31:26;8.50;99.90
15554;DHT22;7878;44.632;10.942;2023-12-28T05:33:52;8.60;99.90
15554;DHT22;7878;44.632;10.942;2023-12-28T05:36:18;8.60;99.90
15554;DHT22;7878;44.632;10.942;2023-12-28T05:38:43;8.50;99.90
15554;DHT22;7878;44.632;10.942;2023-12-28T05:41:10;8.50;99.90
15554;DHT22;7878;44.632;10.942;2023-12-28T05:43:37;8.50;99.90
15554;DHT22;7878;44.632;10.942;2023-12-28T05:46:03;8.50;99.90
15554;DHT22;7878;44.632;10.942;2023-12-28T05:48:28;8.60;99.90
15554;DHT22;7878;44.632;10.942;2023-12-28T05:50:54;8.60;99.90
15554;DHT22;7878;44.632;10.942;2023-12-28T05:53:20;8.60;99.90
15554;DHT22;7878;44.632;10.942;2023-12-28T05:55:45;8.60;99.90
15554;DHT22;7878;44.632;10.942;2023-12-28T05:58:11;8.50;99.90
15554;DHT22;7878;44.632;10.942;2023-12-28T06:00:37;8.50;99.90
15554;DHT22;7878;44.632;10.942;2023-12-28T06:03:04;8.40;99.90
15554;DHT22;7878;44.632;10.942;2023-12-28T06:05:30;8.40;99.90
15554;DHT22;7878;44.632;10.942;2023-12-28T06:07:55;8.30;99.90
15554;DHT22;7878;44.632;10.942;2023-12-28T06:10:21;8.40;99.90
15554;DHT22;7878;44.632;10.942;2023-12-28T06:12:47;8.30;99.90
15554;DHT22;7878;44.632;10.942;2023-12-28T06:15:13;8.30;99.90
15554;DHT22;7878;44.632;10.942;2023-12-28T06:17:39;8.40;99.90
15554;DHT22;7878;44.632;10.942;2023-12-28T06:20:05;8.70;99.90
15554;DHT22;7878;44.632;10.942;2023-12-28T06:22:31;8.40;99.90
15554;DHT22;7878;44.632;10.942;2023-12-28T06:24:56;8.40;99.90
15554;DHT22;7878;44.632;10.942;2023-12-28T06:27:22;8.40;99.90
15554;DHT22;7878;44.632;10.942;2023-12-28T06:29:49;8.40;99.90
15554;DHT22;7878;44.632;10.942;2023-12-28T06:32:15;8.30;99.90
15554;DHT22;7878;44.632;10.942;2023-12-28T06:34:40;8.40;99.90
15554;DHT22;7878;44.632;10.942;2023-12-28T06:37:06;8.30;99.90
15554;DHT22;7878;44.632;10.942;2023-12-28T06:39:32;8.30;99.90
15554;DHT22;7878;44.632;10.942;2023-12-28T06:41:57;8.30;99.90
15554;DHT22;7878;44.632;10.942;2023-12-28T06:44:23;8.30;99.90
15554;DHT22;7878;44.632;10.942;2023-12-28T06:46:49;8.30;99.90
15554;DHT22;7878;44.632;10.942;2023-12-28T06:49:14;8.30;99.90
15554;DHT22;7878;44.632;10.942;2023-12-28T06:51:40;8.30;99.90
15554;DHT22;7878;44.632;10.942;2023-12-28T06:54:08;8.30;99.90
15554;DHT22;7878;44.632;10.942;2023-12-28T06:56:34;8.30;99.90
15554;DHT22;7878;44.632;10.942;2023-12-28T06:59:00;8.30;99.90
15554;DHT22;7878;44.632;10.942;2023-12-28T07:01:25;8.30;99.90
15554;DHT22;7878;44.632;10.942;2023-12-28T07:03:51;8.30;99.90
15554;DHT22;7878;44.632;10.942;2023-12-28T07:06:17;8.40;99.90
15554;DHT22;7878;44.632;10.942;2023-12-28T07:08:43;8.30;99.90
15554;DHT22;7878;44.632;10.942;2023-12-28T07:11:12;8.20;99.90
15554;DHT22;7878;44.632;10.942;2023-12-28T07:13:37;8.20;99.90
15554;DHT22;7878;44.632;10.942;2023-12-28T07:16:04;8.10;99.90
15554;DHT22;7878;44.632;10.942;2023-12-28T07:18:29;8.10;99.90
15554;DHT22;7878;44.632;10.942;2023-12-28T07:20:55;8.20;99.90
15554;DHT22;7878;44.632;10.942;2023-12-28T07:23:21;8.20;99.90
15554;DHT22;7878;44.632;10.942;2023-12-28T07:25:47;8.20;99.90
15554;DHT22;7878;44.632;10.942;2023-12-28T07:28:13;8.20;99.90
15554;DHT22;7878;44.632;10.942;2023-12-28T07:30:40;8.30;99.90
15554;DHT22;7878;44.632;10.942;2023-12-28T07:33:06;8.30;99.90
15554;DHT22;7878;44.632;10.942;2023-12-28T07:35:32;8.30;99.90
15554;DHT22;7878;44.632;10.942;2023-12-28T07:37:58;8.30;99.90
15554;DHT22;7878;44.632;10.942;2023-12-28T07:40:24;8.30;99.90
15554;DHT22;7878;44.632;10.942;2023-12-28T07:42:49;8.40;99.90
15554;DHT22;7878;44.632;10.942;2023-12-28T07:45:15;8.40;99.90
15554;DHT22;7878;44.632;10.942;2023-12-28T07:47:42;8.40;99.90
15554;DHT22;7878;44.632;10.942;2023-12-28T07:50:08;8.40;99.90
15554;DHT22;7878;44.632;10.942;2023-12-28T07:52:36;8.40;99.90
15554;DHT22;7878;44.632;10.942;2023-12-28T07:55:03;8.40;99.90
15554;DHT22;7878;44.632;10.942;2023-12-28T07:57:29;8.40;99.90
15554;DHT22;7878;44.632;10.942;2023-12-28T07:59:56;8.50;99.90
15554;DHT22;7878;44.632;10.942;2023-12-28T08:02:22;8.50;99.90
15554;DHT22;7878;44.632;10.942;2023-12-28T08:04:47;8.50;99.90
15554;DHT22;7878;44.632;10.942;2023-12-28T08:07:14;8.60;99.90
15554;DHT22;7878;44.632;10.942;2023-12-28T08:09:39;8.60;99.90
15554;DHT22;7878;44.632;10.942;2023-12-28T08:12:05;8.60;99.90
15554;DHT22;7878;44.632;10.942;2023-12-28T08:14:31;8.70;99.90
15554;DHT22;7878;44.632;10.942;2023-12-28T08:16:57;8.80;99.90
15554;DHT22;7878;44.632;10.942;2023-12-28T08:19:22;8.90;99.90
15554;DHT22;7878;44.632;10.942;2023-12-28T08:21:48;8.90;99.90
15554;DHT22;7878;44.632;10.942;2023-12-28T08:24:14;8.80;99.90
15554;DHT22;7878;44.632;10.942;2023-12-28T08:26:39;8.80;99.90
15554;DHT22;7878;44.632;10.942;2023-12-28T08:29:05;8.90;99.90
15554;DHT22;7878;44.632;10.942;2023-12-28T08:31:31;9.00;99.90
15554;DHT22;7878;44.632;10.942;2023-12-28T08:33:57;9.10;99.90
15554;DHT22;7878;44.632;10.942;2023-12-28T08:36:22;9.10;99.90
15554;DHT22;7878;44.632;10.942;2023-12-28T08:38:48;9.20;99.90
15554;DHT22;7878;44.632;10.942;2023-12-28T08:41:21;9.20;99.90
15554;DHT22;7878;44.632;10.942;2023-12-28T08:43:48;9.40;99.90
15554;DHT22;7878;44.632;10.942;2023-12-28T08:46:13;9.40;99.90
15554;DHT22;7878;44.632;10.942;2023-12-28T08:48:43;9.50;99.90
15554;DHT22;7878;44.632;10.942;2023-12-28T08:51:11;9.60;99.90
15554;DHT22;7878;44.632;10.942;2023-12-28T08:53:37;9.60;99.90
15554;DHT22;7878;44.632;10.942;2023-12-28T08:56:15;9.70;99.90
15554;DHT22;7878;44.632;10.942;2023-12-28T08:58:41;9.80;99.90
15554;DHT22;7878;44.632;10.942;2023-12-28T09:01:07;9.80;99.90
15554;DHT22;7878;44.632;10.942;2023-12-28T09:03:33;9.90;99.90
15554;DHT22;7878;44.632;10.942;2023-12-28T09:05:58;10.00;99.90
15554;DHT22;7878;44.632;10.942;2023-12-28T09:08:24;10.00;99.90
15554;DHT22;7878;44.632;10.942;2023-12-28T09:10:50;10.10;99.90
15554;DHT22;7878;44.632;10.942;2023-12-28T09:13:16;10.10;99.90
15554;DHT22;7878;44.632;10.942;2023-12-28T09:15:45;10.20;99.90
15554;DHT22;7878;44.632;10.942;2023-12-28T09:18:11;10.30;99.90
15554;DHT22;7878;44.632;10.942;2023-12-28T09:20:37;10.40;99.90
15554;DHT22;7878;44.632;10.942;2023-12-28T09:23:03;10.50;99.90
15554;DHT22;7878;44.632;10.942;2023-12-28T09:25:28;10.60;99.90
15554;DHT22;7878;44.632;10.942;2023-12-28T09:27:54;10.80;99.90
15554;DHT22;7878;44.632;10.942;2023-12-28T09:30:20;11.10;99.90
15554;DHT22;7878;44.632;10.942;2023-12-28T09:32:46;11.50;99.90
15554;DHT22;7878;44.632;10.942;2023-12-28T09:35:11;11.70;99.90
15554;DHT22;7878;44.632;10.942;2023-12-28T09:37:37;11.80;99.90
15554;DHT22;7878;44.632;10.942;2023-12-28T09:40:03;11.90;99.90
15554;DHT22;7878;44.632;10.942;2023-12-28T09:42:34;12.50;99.90
15554;DHT22;7878;44.632;10.942;2023-12-28T09:47:32;15.90;99.90
15554;DHT22;7878;44.632;10.942;2023-12-28T09:49:58;15.60;99.90
15554;DHT22;7878;44.632;10.942;2023-12-28T09:52:24;14.90;99.90
15554;DHT22;7878;44.632;10.942;2023-12-28T09:54:50;14.40;99.90
15554;DHT22;7878;44.632;10.942;2023-12-28T09:57:16;14.30;99.90
15554;DHT22;7878;44.632;10.942;2023-12-28T09:59:42;14.80;99.90
15554;DHT22;7878;44.632;10.942;2023-12-28T10:02:10;15.80;99.90
15554;DHT22;7878;44.632;10.942;2023-12-28T10:04:37;16.30;99.90
15554;DHT22;7878;44.632;10.942;2023-12-28T10:07:03;17.10;99.90
15554;DHT22;7878;44.632;10.942;2023-12-28T10:09:29;17.80;99.90
15554;DHT22;7878;44.632;10.942;2023-12-28T10:11:56;18.40;99.90
15554;DHT22;7878;44.632;10.942;2023-12-28T10:14:22;17.60;99.90
15554;DHT22;7878;44.632;10.942;2023-12-28T10:16:48;17.00;99.90
15554;DHT22;7878;44.632;10.942;2023-12-28T10:19:14;16.60;99.90
15554;DHT22;7878;44.632;10.942;2023-12-28T10:21:40;15.80;99.90
15554;DHT22;7878;44.632;10.942;2023-12-28T10:24:06;15.30;99.90
15554;DHT22;7878;44.632;10.942;2023-12-28T10:26:32;15.10;99.90
15554;DHT22;7878;44.632;10.942;2023-12-28T10:29:00;15.40;99.90
15554;DHT22;7878;44.632;10.942;2023-12-28T10:31:27;17.30;99.90
15554;DHT22;7878;44.632;10.942;2023-12-28T10:33:53;19.70;99.90
15554;DHT22;7878;44.632;10.942;2023-12-28T10:36:19;21.70;99.30
15554;DHT22;7878;44.632;10.942;2023-12-28T10:38:47;20.80;97.10
15554;DHT22;7878;44.632;10.942;2023-12-28T10:41:17;20.20;97.20
15554;DHT22;7878;44.632;10.942;2023-12-28T10:43:49;21.10;97.70
15554;DHT22;7878;44.632;10.942;2023-12-28T10:46:26;22.70;97.60
15554;DHT22;7878;44.632;10.942;2023-12-28T10:49:31;23.80;95.50
15554;DHT22;7878;44.632;10.942;2023-12-28T10:51:52;24.70;94.80
15554;DHT22;7878;44.632;10.942;2023-12-28T10:54:37;25.60;93.80
15554;DHT22;7878;44.632;10.942;2023-12-28T10:57:12;25.30;90.80
15554;DHT22;7878;44.632;10.942;2023-12-28T11:02:21;22.70;91.50
15554;DHT22;7878;44.632;10.942;2023-12-28T11:04:54;21.90;93.30
15554;DHT22;7878;44.632;10.942;2023-12-28T11:07:21;21.30;94.90
15554;DHT22;7878;44.632;10.942;2023-12-28T11:09:47;21.00;95.30
15554;DHT22;7878;44.632;10.942;2023-12-28T11:12:13;20.90;94.70
15554;DHT22;7878;44.632;10.942;2023-12-28T11:14:43;20.80;95.00
15554;DHT22;7878;44.632;10.942;2023-12-28T11:17:10;20.90;95.30
15554;DHT22;7878;44.632;10.942;2023-12-28T11:19:36;21.20;94.90
15554;DHT22;7878;44.632;10.942;2023-12-28T11:22:03;21.50;94.70
15554;DHT22;7878;44.632;10.942;2023-12-28T11:24:30;21.60;94.20
15554;DHT22;7878;44.632;10.942;2023-12-28T11:26:57;21.40;94.30
15554;DHT22;7878;44.632;10.942;2023-12-28T11:29:23;21.20;94.90
15554;DHT22;7878;44.632;10.942;2023-12-28T11:31:53;21.70;95.10
15554;DHT22;7878;44.632;10.942;2023-12-28T11:34:25;23.00;94.20
15554;DHT22;7878;44.632;10.942;2023-12-28T11:36:53;24.50;94.30
15554;DHT22;7878;44.632;10.942;2023-12-28T11:42:06;24.20;99.90
15554;DHT22;7878;44.632;10.942;2023-12-28T11:44:54;25.90;90.80
15554;DHT22;7878;44.632;10.942;2023-12-28T11:47:24;28.80;83.70
15554;DHT22;7878;44.632;10.942;2023-12-28T11:49:51;30.50;82.10
15554;DHT22;7878;44.632;10.942;2023-12-28T11:52:27;31.10;80.90
15554;DHT22;7878;44.632;10.942;2023-12-28T11:54:54;29.80;77.10
15554;DHT22;7878;44.632;10.942;2023-12-28T11:57:20;27.50;81.10
15554;DHT22;7878;44.632;10.942;2023-12-28T11:59:47;26.50;84.10
15554;DHT22;7878;44.632;10.942;2023-12-28T12:02:13;25.00;83.50
15554;DHT22;7878;44.632;10.942;2023-12-28T12:04:39;23.50;85.50
15554;DHT22;7878;44.632;10.942;2023-12-28T12:07:05;22.30;87.80
15554;DHT22;7878;44.632;10.942;2023-12-28T12:09:31;21.50;89.10
15554;DHT22;7878;44.632;10.942;2023-12-28T12:12:03;20.90;90.70
15554;DHT22;7878;44.632;10.942;2023-12-28T12:14:30;20.40;90.80
15554;DHT22;7878;44.632;10.942;2023-12-28T12:16:59;20.10;91.90
15554;DHT22;7878;44.632;10.942;2023-12-28T12:19:25;19.80;92.30
15554;DHT22;7878;44.632;10.942;2023-12-28T12:21:55;19.50;92.70
15554;DHT22;7878;44.632;10.942;2023-12-28T12:24:22;19.30;92.40
15554;DHT22;7878;44.632;10.942;2023-12-28T12:26:50;19.10;92.80
15554;DHT22;7878;44.632;10.942;2023-12-28T12:29:16;18.90;93.00
15554;DHT22;7878;44.632;10.942;2023-12-28T12:31:43;18.90;93.00
15554;DHT22;7878;44.632;10.942;2023-12-28T12:34:10;18.70;93.30
15554;DHT22;7878;44.632;10.942;2023-12-28T12:36:36;18.50;93.80
15554;DHT22;7878;44.632;10.942;2023-12-28T12:39:03;18.30;94.40
15554;DHT22;7878;44.632;10.942;2023-12-28T12:41:35;18.10;94.70
15554;DHT22;7878;44.632;10.942;2023-12-28T12:44:01;17.90;94.60
15554;DHT22;7878;44.632;10.942;2023-12-28T12:46:27;17.70;95.10
15554;DHT22;7878;44.632;10.942;2023-12-28T12:48:56;17.60;95.30
15554;DHT22;7878;44.632;10.942;2023-12-28T12:51:23;17.50;95.70
15554;DHT22;7878;44.632;10.942;2023-12-28T12:53:49;17.40;95.60
15554;DHT22;7878;44.632;10.942;2023-12-28T12:56:14;17.40;95.90
15554;DHT22;7878;44.632;10.942;2023-12-28T12:58:40;17.30;95.90
15554;DHT22;7878;44.632;10.942;2023-12-28T13:01:10;17.20;96.30
15554;DHT22;7878;44.632;10.942;2023-12-28T13:03:37;17.30;96.30
15554;DHT22;7878;44.632;10.942;2023-12-28T13:06:03;17.30;96.50
15554;DHT22;7878;44.632;10.942;2023-12-28T13:08:29;17.30;96.60
15554;DHT22;7878;44.632;10.942;2023-12-28T13:10:55;17.30;96.70
15554;DHT22;7878;44.632;10.942;2023-12-28T13:13:21;17.20;96.70
15554;DHT22;7878;44.632;10.942;2023-12-28T13:15:47;17.10;96.90
15554;DHT22;7878;44.632;10.942;2023-12-28T13:18:12;16.90;97.20
15554;DHT22;7878;44.632;10.942;2023-12-28T13:20:38;16.70;97.20
15554;DHT22;7878;44.632;10.942;2023-12-28T13:23:04;16.70;97.60
15554;DHT22;7878;44.632;10.942;2023-12-28T13:25:30;16.70;97.60
15554;DHT22;7878;44.632;10.942;2023-12-28T13:27:55;16.80;97.40
15554;DHT22;7878;44.632;10.942;2023-12-28T13:30:21;16.90;97.30
15554;DHT22;7878;44.632;10.942;2023-12-28T13:32:54;17.00;97.20
15554;DHT22;7878;44.632;10.942;2023-12-28T13:35:22;17.20;96.70
15554;DHT22;7878;44.632;10.942;2023-12-28T13:37:47;17.30;96.50
15554;DHT22;7878;44.632;10.942;2023-12-28T13:40:13;17.20;96.60
15554;DHT22;7878;44.632;10.942;2023-12-28T13:42:39;17.00;96.80
15554;DHT22;7878;44.632;10.942;2023-12-28T13:45:05;16.80;97.10
15554;DHT22;7878;44.632;10.942;2023-12-28T13:47:31;16.60;97.40
15554;DHT22;7878;44.632;10.942;2023-12-28T13:49:56;16.40;97.60
15554;DHT22;7878;44.632;10.942;2023-12-28T13:52:22;16.20;98.10
15554;DHT22;7878;44.632;10.942;2023-12-28T13:54:48;16.00;98.40
15554;DHT22;7878;44.632;10.942;2023-12-28T13:57:13;15.90;98.80
15554;DHT22;7878;44.632;10.942;2023-12-28T13:59:39;15.80;99.10
15554;DHT22;7878;44.632;10.942;2023-12-28T14:02:05;15.70;99.10
15554;DHT22;7878;44.632;10.942;2023-12-28T14:04:31;15.70;99.40
15554;DHT22;7878;44.632;10.942;2023-12-28T14:06:56;15.70;99.70
15554;DHT22;7878;44.632;10.942;2023-12-28T14:09:22;15.60;99.90
15554;DHT22;7878;44.632;10.942;2023-12-28T14:11:48;15.60;99.90
15554;DHT22;7878;44.632;10.942;2023-12-28T14:14:14;15.50;99.90
15554;DHT22;7878;44.632;10.942;2023-12-28T14:16:40;15.50;99.90
15554;DHT22;7878;44.632;10.942;2023-12-28T14:19:06;15.40;99.90
15554;DHT22;7878;44.632;10.942;2023-12-28T14:21:36;15.40;99.90
15554;DHT22;7878;44.632;10.942;2023-12-28T14:24:03;15.30;99.90
15554;DHT22;7878;44.632;10.942;2023-12-28T14:26:31;15.30;99.90
15554;DHT22;7878;44.632;10.942;2023-12-28T14:28:58;15.30;99.90
15554;DHT22;7878;44.632;10.942;2023-12-28T14:31:25;15.30;99.90
15554;DHT22;7878;44.632;10.942;2023-12-28T14:33:52;15.30;99.90
15554;DHT22;7878;44.632;10.942;2023-12-28T14:36:33;15.30;99.90
15554;DHT22;7878;44.632;10.942;2023-12-28T14:39:00;15.20;99.90
15554;DHT22;7878;44.632;10.942;2023-12-28T14:41:26;15.10;99.90
15554;DHT22;7878;44.632;10.942;2023-12-28T14:43:52;15.10;99.90
15554;DHT22;7878;44.632;10.942;2023-12-28T14:46:18;15.10;99.90
15554;DHT22;7878;44.632;10.942;2023-12-28T14:48:43;15.00;99.90
15554;DHT22;7878;44.632;10.942;2023-12-28T14:51:09;15.00;99.90
15554;DHT22;7878;44.632;10.942;2023-12-28T14:53:35;15.00;99.90
15554;DHT22;7878;44.632;10.942;2023-12-28T14:56:00;15.00;99.90
15554;DHT22;7878;44.632;10.942;2023-12-28T14:58:26;15.00;99.90
15554;DHT22;7878;44.632;10.942;2023-12-28T15:00:52;14.90;99.90
15554;DHT22;7878;44.632;10.942;2023-12-28T15:03:20;14.90;99.90
15554;DHT22;7878;44.632;10.942;2023-12-28T15:05:45;14.90;99.90
15554;DHT22;7878;44.632;10.942;2023-12-28T15:08:11;14.80;99.90
15554;DHT22;7878;44.632;10.942;2023-12-28T15:10:37;14.70;99.90
15554;DHT22;7878;44.632;10.942;2023-12-28T15:13:03;14.70;99.90
15554;DHT22;7878;44.632;10.942;2023-12-28T15:15:29;14.70;99.90
15554;DHT22;7878;44.632;10.942;2023-12-28T15:17:55;14.70;99.90
15554;DHT22;7878;44.632;10.942;2023-12-28T15:20:22;14.60;99.90
15554;DHT22;7878;44.632;10.942;2023-12-28T15:22:48;14.50;99.90
15554;DHT22;7878;44.632;10.942;2023-12-28T15:25:14;14.40;99.90
15554;DHT22;7878;44.632;10.942;2023-12-28T15:27:40;14.40;99.90
15554;DHT22;7878;44.632;10.942;2023-12-28T15:30:06;14.40;99.90
15554;DHT22;7878;44.632;10.942;2023-12-28T15:32:33;14.30;99.90
15554;DHT22;7878;44.632;10.942;2023-12-28T15:34:59;14.30;99.90
15554;DHT22;7878;44.632;10.942;2023-12-28T15:37:27;14.30;99.90
15554;DHT22;7878;44.632;10.942;2023-12-28T15:39:53;14.20;99.90
15554;DHT22;7878;44.632;10.942;2023-12-28T15:42:18;14.20;99.90
15554;DHT22;7878;44.632;10.942;2023-12-28T15:44:44;14.10;99.90